createdAt,value
2018-12-09T00:00:34.498Z,1.90
2018-12-09T00:03:06.227Z,1.73
2018-12-09T00:05:39.678Z,2.00
2018-12-09T00:08:10.838Z,1.63
2018-12-09T00:10:40.001Z,2.20
2018-12-09T00:13:09.159Z,1.60
2018-12-09T00:15:43.115Z,1.60
2018-12-09T00:18:12.812Z,2.73
2018-12-09T00:20:42.008Z,2.30
2018-12-09T00:23:11.201Z,2.03
2018-12-09T00:25:41.140Z,2.80
2018-12-09T00:28:10.412Z,2.77
2018-12-09T00:30:40.129Z,2.47
2018-12-09T00:33:09.322Z,2.33
2018-12-09T00:35:38.487Z,2.47
2018-12-09T00:38:08.534Z,2.90
2018-12-09T00:40:38.763Z,2.80
2018-12-09T00:43:07.934Z,3.03
2018-12-09T00:45:37.227Z,2.90
2018-12-09T00:48:06.463Z,3.10
2018-12-09T00:50:37.532Z,3.00
2018-12-09T00:53:06.870Z,3.13
2018-12-09T00:55:36.101Z,3.27
2018-12-09T00:58:05.358Z,3.80
2018-12-09T01:00:34.825Z,3.03
2018-12-09T01:03:05.076Z,3.70
2018-12-09T01:05:34.230Z,4.00
2018-12-09T01:08:05.496Z,3.80
2018-12-09T01:10:34.677Z,4.20
2018-12-09T01:13:04.510Z,3.80
2018-12-09T01:15:34.127Z,4.17
2018-12-09T01:18:03.503Z,4.10
2018-12-09T01:20:32.676Z,4.17
2018-12-09T01:23:01.979Z,4.30
2018-12-09T01:25:32.946Z,3.93
2018-12-09T01:28:02.128Z,3.83
2018-12-09T01:30:32.651Z,4.10
2018-12-09T01:33:01.847Z,4.13
2018-12-09T01:35:31.619Z,3.83
2018-12-09T01:38:01.299Z,4.00
2018-12-09T01:40:34.594Z,4.07
2018-12-09T01:43:03.929Z,4.10
2018-12-09T01:45:34.859Z,4.43
2018-12-09T01:48:04.146Z,3.70
2018-12-09T01:50:33.355Z,4.20
2018-12-09T01:53:16.261Z,4.30
2018-12-09T01:55:46.512Z,4.17
2018-12-09T01:58:15.886Z,4.37
2018-12-09T02:00:45.082Z,3.97
2018-12-09T02:03:14.550Z,4.10
2018-12-09T02:05:44.106Z,4.10
2018-12-09T02:08:14.862Z,4.40
2018-12-09T02:10:44.082Z,3.47
2018-12-09T02:13:13.662Z,4.03
2018-12-09T02:15:42.883Z,3.53
2018-12-09T02:18:12.183Z,3.80
2018-12-09T02:20:42.344Z,4.60
2018-12-09T02:23:11.543Z,4.10
2018-12-09T02:25:41.625Z,3.70
2018-12-09T02:28:10.965Z,3.73
2018-12-09T02:30:40.126Z,3.53
2018-12-09T02:33:11.720Z,3.17
2018-12-09T02:35:46.369Z,3.50
2018-12-09T02:38:15.636Z,3.47
2018-12-09T02:40:44.803Z,3.23
2018-12-09T02:43:15.524Z,3.60
2018-12-09T02:45:46.219Z,3.93
2018-12-09T02:48:15.583Z,3.47
2018-12-09T02:50:44.803Z,3.73
2018-12-09T02:53:14.763Z,4.13
2018-12-09T02:55:44.816Z,3.57
2018-12-09T02:58:14.043Z,3.90
2018-12-09T03:00:43.335Z,3.70
2018-12-09T03:03:12.589Z,3.50
2018-12-09T03:05:42.463Z,4.00
2018-12-09T03:08:11.709Z,3.43
2018-12-09T03:10:41.194Z,3.63
2018-12-09T03:13:10.374Z,4.07
2018-12-09T03:15:39.750Z,3.27
2018-12-09T03:18:10.892Z,3.17
2018-12-09T03:20:41.670Z,3.13
2018-12-09T03:23:10.888Z,3.37
2018-12-09T03:25:40.320Z,2.43
2018-12-09T03:28:10.064Z,2.83
2018-12-09T03:30:39.683Z,3.13
2018-12-09T03:33:08.876Z,3.03
2018-12-09T03:35:38.488Z,2.93
2018-12-09T03:38:07.980Z,3.30
2018-12-09T03:40:38.814Z,3.33
2018-12-09T03:43:08.623Z,2.67
2018-12-09T03:45:37.885Z,2.93
2018-12-09T03:48:07.152Z,2.83
2018-12-09T03:50:36.388Z,3.00
2018-12-09T03:53:08.291Z,3.27
2018-12-09T03:55:38.437Z,2.77
2018-12-09T03:58:07.602Z,2.10
2018-12-09T04:00:36.786Z,2.30
2018-12-09T04:03:06.352Z,2.70
2018-12-09T04:05:36.500Z,1.73
2018-12-09T04:08:06.739Z,1.87
2018-12-09T04:10:36.072Z,2.33
2018-12-09T04:13:05.651Z,1.70
2018-12-09T04:15:40.322Z,1.87
2018-12-09T04:18:13.352Z,1.77
2018-12-09T04:20:42.611Z,1.50
2018-12-09T04:23:11.807Z,1.33
2018-12-09T04:25:41.003Z,1.10
2018-12-09T04:28:10.268Z,1.43
2018-12-09T04:30:40.847Z,1.17
2018-12-09T04:33:10.008Z,1.53
2018-12-09T04:35:39.354Z,2.23
2018-12-09T04:38:08.595Z,1.40
2018-12-09T04:40:38.771Z,1.67
2018-12-09T04:43:08.851Z,1.57
2018-12-09T04:45:38.095Z,1.73
2018-12-09T04:48:07.251Z,1.57
2018-12-09T04:50:38.235Z,1.60
2018-12-09T04:53:07.385Z,2.10
2018-12-09T04:55:37.936Z,1.73
2018-12-09T04:58:07.210Z,1.60
2018-12-09T05:00:48.218Z,1.77
2018-12-09T05:03:17.518Z,1.93
2018-12-09T05:05:47.624Z,2.20
2018-12-09T05:08:16.909Z,2.00
2018-12-09T05:10:47.091Z,2.17
2018-12-09T05:13:17.764Z,2.40
2018-12-09T05:15:47.232Z,2.63
2018-12-09T05:18:17.025Z,2.37
2018-12-09T05:20:46.688Z,3.20
2018-12-09T05:23:16.011Z,2.80
2018-12-09T05:25:45.180Z,3.13
2018-12-09T05:28:14.927Z,3.40
2018-12-09T05:30:44.487Z,4.03
2018-12-09T05:33:14.710Z,3.50
2018-12-09T05:35:43.936Z,3.20
2018-12-09T05:38:13.178Z,3.73
2018-12-09T05:40:43.462Z,3.27
2018-12-09T05:43:13.355Z,2.67
2018-12-09T05:45:42.531Z,2.90
2018-12-09T05:48:13.006Z,2.10
2018-12-09T05:50:42.775Z,2.17
2018-12-09T05:53:12.429Z,2.33
2018-12-09T05:55:41.731Z,2.50
2018-12-09T05:58:10.886Z,2.73
2018-12-09T06:00:40.054Z,2.50
2018-12-09T06:03:10.795Z,3.17
2018-12-09T06:05:40.247Z,2.70
2018-12-09T06:08:10.470Z,2.90
2018-12-09T06:10:41.189Z,2.87
2018-12-09T06:13:12.167Z,2.60
2018-12-09T06:15:42.115Z,3.30
2018-12-09T06:18:12.086Z,3.27
2018-12-09T06:20:41.310Z,2.93
2018-12-09T06:23:11.011Z,3.23
2018-12-09T06:25:41.854Z,3.13
2018-12-09T06:28:12.616Z,3.23
2018-12-09T06:30:41.797Z,4.03
2018-12-09T06:33:10.988Z,3.60
2018-12-09T06:35:41.265Z,3.50
2018-12-09T06:38:10.509Z,3.77
2018-12-09T06:40:39.731Z,3.33
2018-12-09T06:43:08.994Z,3.57
2018-12-09T06:45:38.270Z,3.60
2018-12-09T06:48:09.092Z,3.57
2018-12-09T06:50:38.372Z,4.23
2018-12-09T06:53:07.633Z,3.07
2018-12-09T06:55:37.074Z,3.17
2018-12-09T06:58:06.437Z,3.20
2018-12-09T07:00:36.866Z,3.00
2018-12-09T07:03:06.006Z,2.83
2018-12-09T07:05:35.760Z,2.90
2018-12-09T07:08:04.929Z,3.57
2018-12-09T07:10:34.105Z,3.37
2018-12-09T07:13:04.963Z,3.40
2018-12-09T07:15:34.241Z,3.77
2018-12-09T07:18:03.607Z,3.27
2018-12-09T07:20:32.818Z,3.10
2018-12-09T07:23:01.990Z,2.80
2018-12-09T07:25:32.088Z,3.23
2018-12-09T07:28:01.307Z,3.10
2018-12-09T07:30:30.472Z,2.60
2018-12-09T07:32:59.639Z,3.50
2018-12-09T07:35:29.275Z,3.37
2018-12-09T07:38:00.457Z,3.13
2018-12-09T07:40:29.638Z,3.23
2018-12-09T07:42:58.886Z,3.33
2018-12-09T07:45:28.160Z,3.23
2018-12-09T07:47:57.342Z,2.93
2018-12-09T07:50:27.568Z,3.10
2018-12-09T07:52:57.028Z,3.50
2018-12-09T07:55:26.203Z,3.53
2018-12-09T07:57:56.697Z,3.10
2018-12-09T08:00:26.535Z,3.27
2018-12-09T08:02:57.302Z,3.33
2018-12-09T08:05:26.464Z,3.27
2018-12-09T08:07:56.568Z,2.77
2018-12-09T08:10:25.921Z,2.83
2018-12-09T08:12:56.374Z,2.90
2018-12-09T08:15:25.584Z,3.17
2018-12-09T08:17:55.468Z,3.40
2018-12-09T08:20:25.880Z,2.60
2018-12-09T08:22:55.838Z,2.93
2018-12-09T08:25:25.502Z,3.07
2018-12-09T08:27:54.703Z,2.97
2018-12-09T08:30:24.008Z,3.03
2018-12-09T08:32:54.968Z,3.10
2018-12-09T08:35:25.036Z,3.07
2018-12-09T08:37:54.332Z,3.60
2018-12-09T08:40:23.715Z,3.10
2018-12-09T08:42:52.997Z,2.97
2018-12-09T08:45:22.219Z,3.13
2018-12-09T08:47:53.057Z,2.97
2018-12-09T08:50:22.255Z,3.20
2018-12-09T08:52:51.557Z,3.37
2018-12-09T08:55:20.905Z,3.07
2018-12-09T08:57:50.183Z,3.10
2018-12-09T09:00:20.460Z,3.07
2018-12-09T09:02:49.813Z,3.03
2018-12-09T09:05:19.071Z,3.20
2018-12-09T09:07:48.346Z,3.40
2018-12-09T09:10:17.754Z,3.53
2018-12-09T09:12:48.981Z,3.20
2018-12-09T09:15:18.424Z,3.00
2018-12-09T09:17:48.031Z,2.90
2018-12-09T09:20:17.259Z,3.23
2018-12-09T09:22:47.895Z,3.13
2018-12-09T09:25:17.500Z,2.60
2018-12-09T09:27:46.675Z,3.43
2018-12-09T09:30:15.943Z,3.20
2018-12-09T09:32:46.434Z,3.30
2018-12-09T09:35:16.722Z,3.00
2018-12-09T09:37:46.030Z,2.80
2018-12-09T09:40:15.238Z,2.63
2018-12-09T09:42:44.538Z,2.40
2018-12-09T09:45:13.873Z,2.70
2018-12-09T09:47:45.186Z,2.87
2018-12-09T09:50:14.369Z,2.60
2018-12-09T09:52:43.507Z,2.80
2018-12-09T09:55:12.695Z,2.80
2018-12-09T09:57:41.992Z,2.60
2018-12-09T10:00:12.296Z,3.63
2018-12-09T10:02:41.494Z,2.87
2018-12-09T10:05:12.997Z,2.90
2018-12-09T10:07:42.197Z,3.17
2018-12-09T10:10:11.979Z,2.90
2018-12-09T10:12:41.304Z,3.30
2018-12-09T10:21:59.455Z,3.43
2018-12-09T10:24:28.771Z,3.40
2018-12-09T10:26:58.027Z,3.13
2018-12-09T10:29:27.340Z,3.13
2018-12-09T10:31:56.561Z,3.60
2018-12-09T10:34:26.759Z,4.33
2018-12-09T10:36:56.007Z,3.17
2018-12-09T10:39:25.279Z,3.07
2018-12-09T10:41:54.455Z,3.83
2018-12-09T10:44:23.888Z,3.60
2018-12-09T10:46:54.710Z,3.73
2018-12-09T10:49:24.033Z,3.13
2018-12-09T10:51:53.239Z,3.20
2018-12-09T10:54:53.395Z,2.73
2018-12-09T10:57:23.527Z,2.93
2018-12-09T10:59:53.203Z,2.80
2018-12-09T11:02:22.482Z,2.60
2018-12-09T11:04:51.735Z,2.77
2018-12-09T11:07:20.996Z,2.40
2018-12-09T11:09:51.314Z,2.40
2018-12-09T11:12:20.479Z,2.17
2018-12-09T11:14:49.626Z,2.50
2018-12-09T11:17:19.430Z,2.07
2018-12-09T11:19:48.751Z,1.80
2018-12-09T11:22:19.413Z,2.00
2018-12-09T11:24:49.067Z,2.00
2018-12-09T11:27:18.304Z,2.10
2018-12-09T11:29:48.540Z,1.83
2018-12-09T11:32:17.842Z,2.30
2018-12-09T11:34:49.002Z,2.03
2018-12-09T11:37:18.672Z,1.83
2018-12-09T11:39:48.139Z,1.77
2018-12-09T11:42:17.296Z,1.50
2018-12-09T11:44:47.442Z,1.60
2018-12-09T11:47:18.544Z,1.70
2018-12-09T11:49:47.727Z,1.30
2018-12-09T11:52:17.952Z,1.30
2018-12-09T11:54:47.109Z,1.47
2018-12-09T11:57:17.082Z,3.57
2018-12-09T11:59:51.158Z,1.50
2018-12-09T12:02:20.406Z,1.00
2018-12-09T12:04:50.829Z,1.10
2018-12-09T12:07:22.311Z,0.90
2018-12-09T12:09:51.429Z,1.30
2018-12-09T12:12:21.544Z,1.33
2018-12-09T12:14:51.027Z,1.20
2018-12-09T12:17:20.743Z,1.37
2018-12-09T12:19:50.348Z,1.40
2018-12-09T12:22:19.678Z,1.20
2018-12-09T12:24:49.826Z,1.47
2018-12-09T12:27:19.003Z,1.10
2018-12-09T12:29:49.820Z,1.20
2018-12-09T12:32:19.016Z,1.30
2018-12-09T12:34:48.164Z,1.33
2018-12-09T12:37:17.377Z,1.40
2018-12-09T12:39:46.520Z,1.50
2018-12-09T12:42:17.880Z,1.80
2018-12-09T12:44:47.846Z,1.70
2018-12-09T12:48:46.207Z,1.73
2018-12-09T12:51:15.736Z,1.90
2018-12-09T12:53:46.235Z,2.10
2018-12-09T12:56:15.416Z,2.30
2018-12-09T12:58:44.702Z,2.63
2018-12-09T13:01:13.855Z,1.90
2018-12-09T13:03:43.042Z,1.70
2018-12-09T13:06:14.348Z,1.70
2018-12-09T13:08:43.520Z,1.43
2018-12-09T13:11:12.656Z,1.87
2018-12-09T13:13:42.989Z,1.40
2018-12-09T13:16:12.618Z,1.40
2018-12-09T13:18:42.292Z,1.20
2018-12-09T13:21:12.161Z,1.40
2018-12-09T13:23:41.363Z,0.93
2018-12-09T13:26:11.533Z,1.30
2018-12-09T13:28:41.446Z,1.00
2018-12-09T13:31:10.675Z,1.10
2018-12-09T13:33:39.846Z,1.00
2018-12-09T13:36:09.273Z,0.93
2018-12-09T13:38:38.570Z,1.00
2018-12-09T13:41:08.678Z,0.90
2018-12-09T13:43:38.039Z,0.90
2018-12-09T13:46:07.190Z,1.27
2018-12-09T13:48:37.069Z,1.20
2018-12-09T13:51:06.287Z,0.90
2018-12-09T13:53:37.255Z,1.40
2018-12-09T13:56:06.438Z,1.10
2018-12-09T13:58:35.643Z,0.97
2018-12-09T14:01:04.821Z,1.17
2018-12-09T14:03:34.129Z,1.23
2018-12-09T14:06:04.351Z,1.00
2018-12-09T14:08:33.553Z,1.40
2018-12-09T14:11:03.018Z,1.27
2018-12-09T14:13:32.340Z,1.27
2018-12-09T14:16:01.483Z,1.40
2018-12-09T14:18:33.465Z,1.83
2018-12-09T14:21:03.910Z,1.97
2018-12-09T14:23:33.126Z,1.73
2018-12-09T14:26:03.051Z,1.50
2018-12-09T14:28:33.196Z,1.47
2018-12-09T14:31:02.758Z,1.70
2018-12-09T14:33:32.181Z,1.67
2018-12-09T14:36:01.412Z,1.43
2018-12-09T14:38:30.604Z,1.53
2018-12-09T14:41:01.043Z,1.43
2018-12-09T14:43:30.666Z,1.40
2018-12-09T14:45:59.842Z,1.37
2018-12-09T14:48:29.164Z,1.40
2018-12-09T14:50:58.354Z,1.47
2018-12-09T14:53:28.067Z,1.57
2018-12-09T14:55:57.804Z,1.43
2018-12-09T14:58:27.995Z,1.97
2018-12-09T15:00:57.142Z,1.60
2018-12-09T15:03:26.966Z,1.90
2018-12-09T15:05:57.327Z,1.70
2018-12-09T15:08:27.496Z,1.77
2018-12-09T15:10:56.827Z,1.80
2018-12-09T15:13:26.055Z,1.80
2018-12-09T15:15:55.259Z,2.17
2018-12-09T15:18:25.024Z,2.00
2018-12-09T15:20:54.807Z,1.80
2018-12-09T15:23:24.020Z,2.50
2018-12-09T15:25:53.316Z,2.10
2018-12-09T15:28:22.480Z,2.13
2018-12-09T15:30:53.643Z,2.30
2018-12-09T15:33:23.233Z,2.43
2018-12-09T15:35:52.434Z,2.50
2018-12-09T15:38:22.825Z,2.60
2018-12-09T15:40:52.388Z,2.20
2018-12-09T15:43:21.576Z,2.83
2018-12-09T15:45:51.197Z,2.53
2018-12-09T15:48:20.400Z,2.50
2018-12-09T15:50:50.088Z,3.33
2018-12-09T15:53:20.316Z,2.97
2018-12-09T15:55:49.487Z,2.90
2018-12-09T15:58:19.034Z,2.67
2018-12-09T16:00:53.360Z,2.50
2018-12-09T16:03:23.227Z,2.43
2018-12-09T16:05:52.399Z,2.50
2018-12-09T16:08:22.207Z,2.40
2018-12-09T16:10:51.396Z,2.30
2018-12-09T16:13:20.590Z,2.50
2018-12-09T16:15:51.108Z,2.87
2018-12-09T16:18:20.445Z,2.63
2018-12-09T16:20:50.191Z,2.67
2018-12-09T16:23:19.441Z,2.63
2018-12-09T16:25:48.708Z,2.50
2018-12-09T16:28:18.384Z,2.20
2018-12-09T16:30:49.261Z,2.50
2018-12-09T16:33:19.567Z,3.43
2018-12-09T16:35:48.753Z,1.90
2018-12-09T16:38:18.564Z,2.10
2018-12-09T16:40:48.319Z,2.43
2018-12-09T16:43:17.799Z,2.33
2018-12-09T16:45:47.130Z,1.80
2018-12-09T16:48:16.294Z,2.30
2018-12-09T16:50:47.095Z,1.90
2018-12-09T16:53:16.315Z,2.20
2018-12-09T16:55:45.455Z,1.90
2018-12-09T16:58:14.687Z,2.00
2018-12-09T17:00:43.972Z,1.90
2018-12-09T17:03:14.140Z,2.50
2018-12-09T17:05:43.322Z,3.10
2018-12-09T17:08:12.558Z,2.53
2018-12-09T17:10:41.839Z,2.13
2018-12-09T17:13:11.033Z,2.20
2018-12-09T17:15:42.327Z,2.53
2018-12-09T17:18:11.489Z,2.80
2018-12-09T17:20:40.644Z,2.27
2018-12-09T17:23:11.068Z,2.47
2018-12-09T17:25:40.933Z,2.30
2018-12-09T17:28:10.556Z,2.27
2018-12-09T17:30:39.778Z,2.20
2018-12-09T17:33:08.995Z,2.10
2018-12-09T17:35:39.303Z,2.60
2018-12-09T17:38:09.301Z,2.40
2018-12-09T17:40:38.489Z,2.40
2018-12-09T17:43:07.840Z,2.10
2018-12-09T17:45:37.946Z,3.20
2018-12-09T17:48:07.153Z,2.67
2018-12-09T17:50:37.226Z,2.27
2018-12-09T17:53:06.428Z,2.87
2018-12-09T17:55:35.594Z,3.17
2018-12-09T17:58:04.799Z,2.87
2018-12-09T18:00:34.018Z,3.00
2018-12-09T18:03:04.944Z,3.00
2018-12-09T18:05:34.203Z,3.53
2018-12-09T18:08:03.605Z,2.77
2018-12-09T18:10:32.831Z,2.57
2018-12-09T18:13:02.034Z,2.73
2018-12-09T18:15:32.172Z,2.93
2018-12-09T18:18:01.332Z,2.90
2018-12-09T18:20:30.494Z,3.00
2018-12-09T18:23:02.048Z,2.90
2018-12-09T18:25:31.928Z,3.07
2018-12-09T18:28:02.067Z,2.60
2018-12-09T18:30:31.359Z,2.97
2018-12-09T18:33:00.701Z,2.53
2018-12-09T18:35:30.124Z,3.17
2018-12-09T18:38:00.382Z,3.50
2018-12-09T18:40:29.700Z,3.53
2018-12-09T18:42:58.896Z,3.13
2018-12-09T18:45:28.180Z,3.20
2018-12-09T18:47:57.378Z,3.50
2018-12-09T18:50:29.157Z,2.33
2018-12-09T18:52:58.315Z,2.30
2018-12-09T18:55:27.591Z,2.20
2018-12-09T18:57:56.792Z,3.07
2018-12-09T19:00:28.208Z,3.10
2018-12-09T19:02:57.976Z,2.60
2018-12-09T19:05:27.228Z,2.63
2018-12-09T19:07:56.685Z,2.67
2018-12-09T19:10:25.884Z,2.73
2018-12-09T19:12:57.849Z,2.87
2018-12-09T19:15:28.084Z,2.87
2018-12-09T19:17:57.318Z,3.07
2018-12-09T19:20:26.609Z,2.83
2018-12-09T19:22:56.322Z,4.00
2018-12-09T19:25:26.045Z,2.87
2018-12-09T19:27:55.276Z,2.50
2018-12-09T19:30:24.475Z,2.80
2018-12-09T19:32:53.803Z,2.20
2018-12-09T19:35:24.741Z,2.97
2018-12-09T19:37:54.326Z,2.40
2018-12-09T19:40:23.823Z,2.37
2018-12-09T19:42:53.060Z,2.50
2018-12-09T19:45:22.475Z,2.63
2018-12-09T19:47:52.330Z,2.97
2018-12-09T19:50:22.924Z,2.53
2018-12-09T19:52:52.394Z,2.37
2018-12-09T19:55:21.576Z,2.70
2018-12-09T19:57:50.852Z,2.77
2018-12-09T20:00:21.772Z,2.67
2018-12-09T20:02:52.447Z,2.87
2018-12-09T20:05:21.768Z,3.07
2018-12-09T20:07:50.994Z,2.97
2018-12-09T20:10:22.114Z,2.63
2018-12-09T20:12:52.036Z,2.83
2018-12-09T20:15:21.210Z,3.00
2018-12-09T20:17:50.532Z,3.20
2018-12-09T20:20:19.732Z,3.17
2018-12-09T20:22:50.344Z,3.27
2018-12-09T20:25:19.766Z,3.10
2018-12-09T20:27:48.956Z,3.73
2018-12-09T20:30:18.227Z,2.80
2018-12-09T20:32:47.541Z,2.73
2018-12-09T20:35:17.595Z,2.93
2018-12-09T20:37:47.005Z,2.83
2018-12-09T20:40:17.586Z,3.17
2018-12-09T20:42:49.925Z,2.57
2018-12-09T20:45:20.147Z,2.90
2018-12-09T20:47:49.346Z,2.97
2018-12-09T20:50:18.551Z,2.73
2018-12-09T20:52:47.834Z,2.70
2018-12-09T20:55:17.122Z,2.63
2018-12-09T20:57:47.247Z,2.47
2018-12-09T21:01:46.855Z,2.67
2018-12-09T21:04:16.085Z,3.10
2018-12-09T21:06:45.297Z,3.27
2018-12-09T21:09:15.882Z,3.00
2018-12-09T21:11:45.087Z,2.93
2018-12-09T21:14:14.383Z,2.80
2018-12-09T21:16:44.914Z,3.10
2018-12-09T21:19:14.708Z,3.10
2018-12-09T21:21:45.650Z,3.13
2018-12-09T21:24:14.882Z,3.23
2018-12-09T21:26:44.168Z,2.87
2018-12-09T21:29:13.412Z,3.07
2018-12-09T21:31:43.943Z,3.10
2018-12-09T21:34:13.243Z,2.77
2018-12-09T21:36:42.519Z,3.23
2018-12-09T21:39:11.704Z,2.67
2018-12-09T21:41:42.798Z,2.80
2018-12-09T21:44:12.247Z,2.77
2018-12-09T21:46:41.493Z,2.57
2018-12-09T21:49:10.737Z,2.20
2018-12-09T21:51:40.526Z,2.30
2018-12-09T21:54:11.919Z,2.80
2018-12-09T21:56:41.134Z,2.20
2018-12-09T21:59:10.336Z,2.27
2018-12-09T22:01:39.615Z,2.17
2018-12-09T22:04:09.482Z,2.57
2018-12-09T22:06:39.059Z,2.67
2018-12-09T22:09:08.348Z,2.83
2018-12-09T22:11:40.293Z,2.47
2018-12-09T22:14:09.464Z,2.50
2018-12-09T22:16:40.204Z,2.43
2018-12-09T22:19:10.537Z,2.97
2018-12-09T22:21:39.787Z,3.47
2018-12-09T22:24:08.988Z,2.97
2018-12-09T22:26:38.870Z,3.03
2018-12-09T22:30:38.036Z,3.50
2018-12-09T22:33:08.574Z,2.73
2018-12-09T22:35:37.782Z,3.33
2018-12-09T22:38:08.828Z,3.20
2018-12-09T22:40:38.296Z,2.90
2018-12-09T22:43:07.475Z,2.50
2018-12-09T22:45:38.212Z,2.67
2018-12-09T22:48:07.963Z,2.50
2018-12-09T22:50:37.682Z,2.67
2018-12-09T22:53:06.872Z,2.30
2018-12-09T22:55:36.080Z,2.50
2018-12-09T22:58:05.248Z,2.30
2018-12-09T23:00:38.070Z,3.00
2018-12-09T23:03:09.245Z,2.70
2018-12-09T23:05:38.456Z,2.90
2018-12-09T23:08:09.005Z,2.67
2018-12-09T23:10:40.035Z,2.80
2018-12-09T23:13:09.203Z,3.07
2018-12-09T23:15:38.619Z,2.87
2018-12-09T23:18:07.783Z,2.50
2018-12-09T23:20:36.994Z,2.53
2018-12-09T23:23:07.767Z,2.50
2018-12-09T23:25:36.966Z,2.83
2018-12-09T23:28:06.346Z,2.50
2018-12-09T23:30:36.539Z,2.60
2018-12-09T23:33:05.669Z,3.20
2018-12-09T23:35:35.796Z,2.70
2018-12-09T23:38:04.980Z,2.70
2018-12-09T23:40:34.316Z,2.53
2018-12-09T23:43:03.832Z,2.77
2018-12-09T23:45:33.112Z,2.53
2018-12-09T23:48:03.952Z,2.60
2018-12-09T23:50:33.275Z,2.60
2018-12-09T23:53:02.539Z,2.90
2018-12-09T23:55:31.707Z,2.70
2018-12-09T23:58:00.862Z,3.10
